首页
METAR-TAF:

METAR-TAF

机场 :

蓋恩斯維爾, 佛罗里达州, 美国

纬度: 29-41-31N, 经度: 082-16-32W, 海拔: 46米

当前天气观测

该预报发布于1小时和6分钟前的04:53 UTC
风速4节,风向
温度 27°C
湿度 62%
气压 1020 hPa
能見度: 16.1公里
天空无云

METAR: KGNV 270453Z AUTO 17004KT 10SM CLR 27/19 A3012 RMK AO2 SLP195 T02720194 403780206

时间: 01:59 (05:59 UTC)

预报

该预报发布于35分钟前的05:24 UTC
预报有效从27日的 06点(UTC)到 28日的 06点(UTC)
风速3节,风向多变
能見度: 10公里
少量云层高于6000英尺
从 27日的 1300点(UTC)
风速5节,风向西
能見度: 10公里
散云层高于25000英尺
从 27日的 2000点(UTC)
风速9节,风向西
能見度: 10公里
散云层高于8000英尺, 积雨云.
附近有雷暴

TAF: KGNV 270524Z 2706/2806 VRB03KT P6SM FEW060 FM271300 26005KT P6SM SCT250 FM272000 26009KT P6SM VCTS SCT080CB

超过4000个机场的气象观测和天气预报(METAR&TAF报告)。

可查询的气象台以黄色和红色小点在地图上表示。

将鼠标移到小点上方,可查看气象台名称。

然后点击查看天气观测和预报。

如需切换地图:点击带黑十字的绿色按钮放大地图;点击带横线的绿色按钮缩小地图;或者点击绿色箭头查看邻近地区的地图。


METAR-TAF: